createdAt,value
2019-02-06T00:02:26.960Z,10.22
2019-02-06T00:04:56.947Z,10.14
2019-02-06T00:07:48.317Z,10.08
2019-02-06T00:10:37.963Z,10.09
2019-02-06T00:16:43.027Z,9.97
2019-02-06T00:22:32.553Z,9.84
2019-02-06T00:25:38.076Z,9.71
2019-02-06T00:28:15.510Z,9.56
2019-02-06T00:33:55.593Z,9.60
2019-02-06T00:39:18.561Z,9.84
2019-02-06T00:41:48.598Z,9.87
2019-02-06T00:44:38.484Z,10.01
2019-02-06T00:47:09.461Z,10.01
2019-02-06T00:53:06.044Z,10.00
2019-02-06T00:55:36.156Z,9.85
2019-02-06T00:58:25.578Z,9.61
2019-02-06T01:01:16.219Z,9.58
2019-02-06T01:04:06.697Z,9.55
2019-02-06T01:06:55.668Z,9.45
2019-02-06T01:09:44.810Z,9.35
2019-02-06T01:15:37.778Z,9.38
2019-02-06T01:18:16.632Z,9.32
2019-02-06T01:21:08.973Z,9.45
2019-02-06T01:29:20.706Z,9.56
2019-02-06T01:32:11.769Z,9.41
2019-02-06T01:34:41.881Z,9.35
2019-02-06T01:37:51.667Z,9.30
2019-02-06T01:40:21.721Z,9.35
2019-02-06T01:43:12.171Z,9.37
2019-02-06T01:46:01.198Z,9.29
2019-02-06T01:48:51.672Z,9.12
2019-02-06T01:51:34.588Z,8.90
2019-02-06T01:56:53.982Z,8.85
2019-02-06T01:59:44.654Z,8.95
2019-02-06T02:06:01.682Z,8.80
2019-02-06T02:11:38.549Z,8.81
2019-02-06T02:14:11.092Z,8.76
2019-02-06T02:20:10.213Z,8.66
2019-02-06T02:28:49.175Z,8.69
2019-02-06T02:31:39.675Z,8.70
2019-02-06T02:37:20.150Z,8.81
2019-02-06T02:39:51.784Z,8.82
2019-02-06T02:45:44.858Z,8.88
2019-02-06T02:48:36.783Z,8.87
2019-02-06T02:54:35.359Z,8.82
2019-02-06T02:57:25.328Z,8.83
2019-02-06T03:00:52.636Z,8.89
2019-02-06T03:03:35.544Z,8.90
2019-02-06T03:06:28.527Z,8.91
2019-02-06T03:09:33.362Z,8.83
2019-02-06T03:12:12.140Z,8.81
2019-02-06T03:14:44.603Z,8.84
2019-02-06T03:20:03.845Z,8.84
2019-02-06T03:22:34.878Z,8.85
2019-02-06T03:25:43.410Z,8.85
2019-02-06T03:28:17.058Z,8.93
2019-02-06T03:30:47.263Z,8.95
2019-02-06T03:33:52.435Z,8.86
2019-02-06T03:36:39.900Z,8.78
2019-02-06T03:39:20.620Z,8.78
2019-02-06T03:42:12.276Z,8.78
2019-02-06T03:51:29.443Z,8.69
2019-02-06T03:54:00.531Z,8.64
2019-02-06T03:56:31.702Z,8.58
2019-02-06T03:59:32.931Z,8.56
2019-02-06T04:02:12.401Z,8.64
2019-02-06T04:05:01.432Z,8.57
2019-02-06T04:07:50.280Z,8.51
2019-02-06T04:10:50.615Z,8.50
2019-02-06T04:13:21.407Z,8.53
2019-02-06T04:19:13.819Z,8.58
2019-02-06T04:22:02.943Z,8.58
2019-02-06T04:24:33.172Z,8.54
2019-02-06T04:27:43.768Z,8.55
2019-02-06T04:30:17.178Z,8.54
2019-02-06T04:33:07.281Z,8.46
2019-02-06T04:38:46.150Z,8.23
2019-02-06T04:41:36.028Z,8.10
2019-02-06T04:44:25.084Z,8.05
2019-02-06T04:47:14.570Z,8.08
2019-02-06T04:50:06.336Z,8.17
2019-02-06T04:55:45.034Z,8.24
2019-02-06T04:58:34.806Z,8.27
2019-02-06T05:01:24.807Z,8.23
2019-02-06T05:04:14.006Z,8.25
2019-02-06T05:07:04.308Z,8.07
2019-02-06T05:09:35.233Z,8.11
2019-02-06T05:14:54.763Z,8.26
2019-02-06T05:17:46.289Z,8.28
2019-02-06T05:20:36.757Z,8.24
2019-02-06T05:23:52.919Z,8.27
2019-02-06T05:26:23.183Z,8.33
2019-02-06T05:29:13.912Z,8.35
2019-02-06T05:34:46.653Z,8.45
2019-02-06T05:37:16.708Z,8.52
2019-02-06T05:40:06.321Z,8.56
2019-02-06T05:42:47.021Z,8.58
2019-02-06T05:45:36.659Z,8.47
2019-02-06T05:51:36.226Z,8.47
2019-02-06T05:54:08.238Z,8.46
2019-02-06T05:56:39.023Z,8.18
2019-02-06T06:02:34.475Z,8.08
2019-02-06T06:05:36.153Z,8.04
2019-02-06T06:08:25.610Z,8.09
2019-02-06T06:10:56.361Z,8.11
2019-02-06T06:13:26.493Z,8.24
2019-02-06T06:15:57.516Z,8.23
2019-02-06T06:18:28.685Z,8.12
2019-02-06T06:20:59.857Z,8.25
2019-02-06T06:23:49.165Z,8.17
2019-02-06T06:26:50.001Z,8.17
2019-02-06T06:29:40.447Z,8.21
2019-02-06T06:32:23.856Z,8.19
2019-02-06T06:35:04.025Z,8.16
2019-02-06T06:37:41.589Z,8.11
2019-02-06T06:40:31.803Z,8.12
2019-02-06T06:43:03.278Z,8.06
2019-02-06T06:46:11.964Z,8.13
2019-02-06T06:51:51.863Z,8.53
2019-02-06T06:57:30.759Z,8.29
2019-02-06T07:00:04.964Z,8.16
2019-02-06T07:02:54.215Z,8.00
2019-02-06T07:08:25.178Z,8.09
2019-02-06T07:11:15.569Z,8.09
2019-02-06T07:13:46.126Z,8.19
2019-02-06T07:19:45.577Z,7.95
2019-02-06T07:22:15.894Z,8.12
2019-02-06T07:25:08.908Z,8.19
2019-02-06T07:27:40.832Z,8.14
2019-02-06T07:30:30.982Z,8.32
2019-02-06T07:33:01.715Z,8.43
2019-02-06T07:44:26.240Z,8.47
2019-02-06T07:47:16.051Z,8.48
2019-02-06T07:49:48.942Z,8.46
2019-02-06T07:55:49.346Z,8.37
2019-02-06T07:58:38.631Z,8.37
2019-02-06T08:01:11.044Z,8.38
2019-02-06T08:07:10.091Z,8.77
2019-02-06T08:10:00.346Z,8.97
2019-02-06T08:12:32.287Z,9.02
2019-02-06T08:15:44.364Z,8.95
2019-02-06T08:21:44.603Z,8.99
2019-02-06T08:24:16.462Z,8.95
2019-02-06T08:27:07.030Z,8.76
2019-02-06T08:29:37.619Z,8.71
2019-02-06T08:32:39.280Z,8.95
2019-02-06T08:35:29.259Z,9.01
2019-02-06T08:38:00.221Z,9.01
2019-02-06T08:40:31.844Z,8.93
2019-02-06T08:43:24.784Z,8.92
2019-02-06T08:45:51.055Z,8.87
2019-02-06T08:48:41.327Z,9.09
2019-02-06T08:51:13.732Z,9.36
2019-02-06T08:53:45.570Z,9.07
2019-02-06T08:56:18.914Z,9.07
2019-02-06T08:59:21.754Z,9.25
2019-02-06T09:02:02.660Z,9.31
2019-02-06T09:04:34.095Z,9.31
2019-02-06T09:10:13.303Z,9.49
2019-02-06T09:13:13.105Z,9.53
2019-02-06T09:15:48.961Z,9.67
2019-02-06T09:18:22.187Z,9.70
2019-02-06T09:27:18.768Z,9.61
2019-02-06T09:30:23.332Z,9.79
2019-02-06T09:33:02.061Z,9.69
2019-02-06T09:39:27.469Z,10.04
2019-02-06T09:42:17.890Z,9.76
2019-02-06T09:44:49.380Z,10.05
2019-02-06T09:47:40.871Z,10.34
2019-02-06T09:50:15.757Z,10.34
2019-02-06T09:53:07.844Z,10.55
2019-02-06T10:02:00.943Z,10.61
2019-02-06T10:07:59.810Z,11.06
2019-02-06T10:13:35.330Z,11.67
2019-02-06T10:16:07.430Z,11.88
2019-02-06T10:22:05.639Z,12.03
2019-02-06T10:24:24.875Z,12.05
2019-02-06T10:27:35.769Z,11.92
2019-02-06T10:29:50.572Z,12.13
2019-02-06T10:32:25.817Z,12.21
2019-02-06T10:35:18.692Z,12.39
2019-02-06T10:41:04.680Z,12.54
2019-02-06T10:47:34.445Z,12.61
2019-02-06T10:50:06.113Z,12.73
2019-02-06T10:53:20.506Z,12.76
2019-02-06T10:56:04.301Z,12.95
2019-02-06T10:58:36.042Z,12.98
2019-02-06T11:01:07.177Z,13.00
2019-02-06T11:03:38.452Z,13.06
2019-02-06T11:06:10.692Z,13.57
2019-02-06T11:08:43.298Z,13.53
2019-02-06T11:11:36.028Z,13.63
2019-02-06T11:17:15.382Z,13.48
2019-02-06T11:20:09.495Z,13.56
2019-02-06T11:28:43.431Z,13.78
2019-02-06T11:31:33.892Z,13.65
2019-02-06T11:34:26.033Z,13.55
2019-02-06T11:37:19.477Z,13.54
2019-02-06T11:39:57.967Z,13.89
2019-02-06T11:42:27.085Z,14.04
2019-02-06T11:45:17.254Z,14.07
2019-02-06T11:48:11.133Z,14.27
2019-02-06T11:53:49.886Z,14.50
2019-02-06T11:56:43.234Z,14.27
2019-02-06T11:59:34.718Z,13.93
2019-02-06T12:02:38.585Z,14.12
2019-02-06T12:05:28.855Z,14.10
2019-02-06T12:11:56.483Z,13.98
2019-02-06T12:14:58.703Z,13.94
2019-02-06T12:17:37.849Z,13.78
2019-02-06T12:20:12.279Z,14.25
2019-02-06T12:22:43.494Z,14.38
2019-02-06T12:25:34.593Z,14.43
2019-02-06T12:31:32.865Z,14.61
2019-02-06T12:34:09.169Z,15.02
2019-02-06T12:36:56.487Z,15.21
2019-02-06T12:39:35.951Z,15.41
2019-02-06T12:48:10.980Z,15.45
2019-02-06T12:54:03.283Z,16.04
2019-02-06T12:56:34.243Z,16.04
2019-02-06T12:59:05.264Z,15.94
2019-02-06T13:01:37.532Z,15.93
2019-02-06T13:04:27.788Z,15.63
2019-02-06T13:07:00.222Z,15.36
2019-02-06T13:12:45.364Z,15.13
2019-02-06T13:18:56.647Z,15.76
2019-02-06T13:21:46.851Z,15.82
2019-02-06T13:27:31.764Z,15.06
2019-02-06T13:30:22.731Z,14.69
2019-02-06T13:33:34.486Z,15.01
2019-02-06T13:36:47.941Z,14.35
2019-02-06T13:45:37.059Z,15.63
2019-02-06T13:48:27.335Z,15.86
2019-02-06T13:51:51.842Z,15.86
2019-02-06T13:57:37.429Z,15.52
2019-02-06T14:10:13.812Z,15.20
2019-02-06T14:12:44.851Z,15.67
2019-02-06T14:15:52.721Z,15.72
2019-02-06T14:18:50.742Z,15.91
2019-02-06T14:21:41.724Z,15.70
2019-02-06T14:24:51.107Z,15.93
2019-02-06T14:27:54.171Z,16.03
2019-02-06T14:34:31.266Z,16.26
2019-02-06T14:37:41.430Z,15.88
2019-02-06T14:40:50.694Z,16.13
2019-02-06T14:44:23.582Z,16.01
2019-02-06T14:47:34.134Z,15.88
2019-02-06T14:50:30.337Z,15.76
2019-02-06T14:53:40.609Z,15.87
2019-02-06T14:56:50.134Z,15.67
2019-02-06T15:00:00.982Z,15.64
2019-02-06T15:03:21.789Z,15.95
2019-02-06T15:06:21.185Z,15.82
2019-02-06T15:09:30.725Z,15.83
2019-02-06T15:12:39.791Z,15.35
2019-02-06T15:16:03.173Z,15.64
2019-02-06T15:22:09.804Z,15.72
2019-02-06T15:25:14.105Z,15.89
2019-02-06T15:28:23.233Z,15.55
2019-02-06T15:31:33.996Z,15.60
2019-02-06T15:34:41.773Z,15.47
2019-02-06T15:37:23.826Z,15.51
2019-02-06T15:40:35.117Z,15.43
2019-02-06T15:43:46.577Z,15.31
2019-02-06T15:46:56.459Z,15.23
2019-02-06T15:53:44.804Z,14.78
2019-02-06T15:56:30.265Z,14.60
2019-02-06T15:59:29.690Z,14.65
2019-02-06T16:02:44.283Z,14.38
2019-02-06T16:06:29.700Z,14.08
2019-02-06T16:09:28.311Z,14.00
2019-02-06T16:12:38.176Z,13.83
2019-02-06T16:15:47.251Z,13.82
2019-02-06T16:19:00.716Z,13.89
2019-02-06T16:25:12.640Z,13.71
2019-02-06T16:28:21.720Z,13.41
2019-02-06T16:31:30.732Z,13.11
2019-02-06T16:34:44.899Z,13.20
2019-02-06T16:37:45.942Z,13.23
2019-02-06T16:40:45.423Z,13.33
2019-02-06T16:44:00.142Z,13.10
2019-02-06T16:47:15.054Z,12.98
2019-02-06T16:50:24.148Z,12.64
2019-02-06T16:53:33.223Z,12.41
2019-02-06T16:56:43.864Z,12.47
2019-02-06T16:59:53.004Z,12.51
2019-02-06T17:02:56.731Z,12.27
2019-02-06T17:09:14.836Z,12.14
2019-02-06T17:12:26.607Z,12.29
2019-02-06T17:15:23.628Z,12.22
2019-02-06T17:22:01.953Z,12.05
2019-02-06T17:25:12.611Z,12.05
2019-02-06T17:28:51.285Z,12.19
2019-02-06T17:31:31.215Z,12.41
2019-02-06T17:34:41.160Z,12.13
2019-02-06T17:38:03.236Z,11.85
2019-02-06T17:41:00.776Z,11.74
2019-02-06T17:44:15.637Z,11.71
2019-02-06T17:47:11.511Z,11.49
2019-02-06T17:53:25.568Z,11.51
2019-02-06T18:02:07.683Z,11.36
2019-02-06T18:05:00.292Z,11.43
2019-02-06T18:07:50.484Z,11.46
2019-02-06T18:13:23.789Z,11.37
2019-02-06T18:16:21.147Z,11.36
2019-02-06T18:19:24.329Z,11.46
2019-02-06T18:21:54.836Z,11.47
2019-02-06T18:24:57.281Z,11.58
2019-02-06T18:27:19.901Z,11.40
2019-02-06T18:29:53.787Z,11.36
2019-02-06T18:32:56.237Z,11.16
2019-02-06T18:38:46.664Z,11.12
2019-02-06T18:42:03.414Z,11.17
2019-02-06T18:44:25.285Z,10.92
2019-02-06T18:49:56.475Z,10.70
2019-02-06T18:52:37.780Z,10.69
2019-02-06T18:55:31.964Z,10.70
2019-02-06T18:58:31.538Z,10.73
2019-02-06T19:04:35.055Z,10.65
2019-02-06T19:13:35.851Z,10.62
2019-02-06T19:16:07.062Z,10.44
2019-02-06T19:18:40.792Z,10.33
2019-02-06T19:24:54.467Z,10.37
2019-02-06T19:27:45.061Z,10.37
2019-02-06T19:33:58.337Z,10.32
2019-02-06T19:36:50.320Z,10.30
2019-02-06T19:39:40.444Z,10.29
2019-02-06T19:42:13.222Z,10.33
2019-02-06T19:45:03.742Z,10.32
2019-02-06T19:50:46.820Z,10.28
2019-02-06T19:53:39.557Z,10.51
2019-02-06T19:56:29.952Z,10.51
2019-02-06T20:02:22.787Z,10.34
2019-02-06T20:05:00.099Z,10.30
2019-02-06T20:07:50.025Z,10.22
2019-02-06T20:10:55.360Z,10.14
2019-02-06T20:16:26.919Z,10.08
2019-02-06T20:27:55.967Z,9.84
2019-02-06T20:30:58.457Z,9.82
2019-02-06T20:33:12.070Z,9.82
2019-02-06T20:38:56.704Z,9.84
2019-02-06T20:41:49.295Z,9.80
2019-02-06T20:47:52.610Z,9.77
2019-02-06T20:50:31.200Z,9.72
2019-02-06T20:53:23.779Z,9.72
2019-02-06T20:55:54.857Z,9.91
2019-02-06T20:58:45.408Z,9.87
2019-02-06T21:04:47.178Z,9.63
2019-02-06T21:07:21.168Z,9.65
2019-02-06T21:10:34.885Z,9.67
2019-02-06T21:13:06.871Z,9.61
2019-02-06T21:18:57.662Z,9.45
2019-02-06T21:24:22.659Z,9.36
2019-02-06T21:33:32.667Z,9.08
2019-02-06T21:36:37.884Z,9.06
2019-02-06T21:39:12.605Z,9.10
2019-02-06T21:41:43.867Z,9.16
2019-02-06T21:44:14.958Z,9.22
2019-02-06T21:46:49.329Z,9.20
2019-02-06T21:49:20.331Z,9.17
2019-02-06T21:52:11.927Z,9.14
2019-02-06T21:54:47.097Z,9.11
2019-02-06T21:57:18.259Z,9.15
2019-02-06T21:59:51.201Z,9.15
2019-02-06T22:02:22.940Z,9.08
2019-02-06T22:08:02.559Z,9.17
2019-02-06T22:10:33.546Z,9.13
2019-02-06T22:13:24.330Z,9.12
2019-02-06T22:15:54.570Z,9.13
2019-02-06T22:18:25.455Z,9.04
2019-02-06T22:21:30.112Z,9.06
2019-02-06T22:26:56.803Z,9.00
2019-02-06T22:29:27.799Z,8.99
2019-02-06T22:31:59.143Z,8.99
2019-02-06T22:35:08.160Z,8.98
2019-02-06T22:38:19.698Z,9.01
2019-02-06T22:41:28.623Z,9.03
2019-02-06T22:47:21.620Z,9.08
2019-02-06T22:50:13.133Z,9.11
2019-02-06T22:53:07.099Z,8.97
2019-02-06T22:55:38.001Z,8.97
2019-02-06T23:01:39.372Z,9.11
2019-02-06T23:04:09.651Z,9.15
2019-02-06T23:07:19.090Z,9.07
2019-02-06T23:15:50.314Z,8.79
2019-02-06T23:18:40.822Z,8.78
2019-02-06T23:21:21.477Z,8.78
2019-02-06T23:26:59.901Z,8.85
2019-02-06T23:29:30.098Z,8.85
2019-02-06T23:32:20.605Z,8.89
2019-02-06T23:35:10.376Z,8.90
2019-02-06T23:38:00.419Z,8.93
2019-02-06T23:40:49.541Z,8.93
2019-02-06T23:43:38.617Z,8.95
2019-02-06T23:46:28.492Z,9.14
2019-02-06T23:48:58.707Z,9.13
2019-02-06T23:54:37.728Z,9.17
2019-02-06T23:57:08.640Z,9.26
2019-02-06T23:59:58.977Z,9.34
